Springfield, Massachusetts
Current Conditions -  °F | °C
As of 12:58 AM on Tuesday 21 Oct 2014 (Local Time) from KCEF Reporting Station
Scattered Clouds Scattered Clouds  
Wind Chill: 43°   Ceiling: Unl
Heat Index: 43°   Visibility: 10mi
Dew Point: 41°   Wind: 2mph
Humidity: 93%   Direction: 20°NNE
Pressure: 29.97"   Gusts: NA
Location:  42.1°N, 72.59°W
Report Text: KCEF 210458Z AUTO 02002KT 10SM SCT120 06/05 A2997 RMK AO2 SLP156 T00590048 401431010
Loading
Personal Weather Stations






























Interactive Weather Map
Tropical Storm Tracking
New forecast layout! Learn more

10-Day Weather Forecast

Advertisements
Track Severe Weather on mobile